Time;durP1;ratioP1;P1;durP2;ratioP2;P2;SDS_P1;SDS_P2;PMS_P1;PMS_P2;Temp;Humidity;BMP_temperature;BMP_pressure;BME280_temperature;BME280_humidity;BME280_pressure;Samples;Min_cycle;Max_cycle;Signal;HPM_P1;HPM_P2
2023/08/01 00:01:22;;;;;;;0.00;0.00;;;;;;;;;;7378515;19;20192;-72
2023/08/01 00:03:51;;;;;;;0.00;0.00;;;;;;;;;;7380518;19;20156;-72
2023/08/01 00:06:24;;;;;;;0.00;0.00;;;;;;;;;;7381612;19;20160;-75
2023/08/01 00:08:53;;;;;;;0.00;0.00;;;;;;;;;;7378735;19;20156;-74
2023/08/01 00:11:22;;;;;;;0.00;0.00;;;;;;;;;;7376657;19;20187;-75
2023/08/01 00:13:51;;;;;;;0.00;0.00;;;;;;;;;;7382456;19;20141;-73
2023/08/01 00:16:19;;;;;;;0.00;0.00;;;;;;;;;;7380295;19;20157;-76
2023/08/01 00:18:48;;;;;;;0.00;0.00;;;;;;;;;;7380798;19;20180;-72
2023/08/01 00:21:17;;;;;;;0.00;0.00;;;;;;;;;;7380009;19;20180;-72
2023/08/01 00:23:49;;;;;;;0.00;0.00;;;;;;;;;;7381090;19;20163;-73
2023/08/01 00:26:18;;;;;;;0.00;0.00;;;;;;;;;;7381338;19;20166;-71
2023/08/01 00:28:46;;;;;;;0.00;0.00;;;;;;;;;;7379388;19;20157;-73
2023/08/01 00:31:15;;;;;;;0.00;0.00;;;;;;;;;;7379065;19;20176;-71
2023/08/01 00:33:44;;;;;;;0.00;0.00;;;;;;;;;;7382185;19;20173;-72
2023/08/01 00:36:13;;;;;;;0.00;0.00;;;;;;;;;;7379742;19;20152;-74
2023/08/01 00:38:43;;;;;;;0.00;0.00;;;;;;;;;;7372659;19;20157;-73
2023/08/01 00:41:14;;;;;;;0.00;0.00;;;;;;;;;;7380040;19;20172;-73
2023/08/01 00:43:43;;;;;;;0.00;0.00;;;;;;;;;;7380818;19;20137;-75
2023/08/01 00:46:12;;;;;;;0.00;0.00;;;;;;;;;;7379894;19;20181;-71
2023/08/01 00:48:41;;;;;;;0.00;0.00;;;;;;;;;;7379607;19;20166;-73
2023/08/01 00:51:12;;;;;;;0.00;0.00;;;;;;;;;;7378889;19;20185;-73
2023/08/01 00:53:41;;;;;;;0.00;0.00;;;;;;;;;;7380695;19;20140;-73
2023/08/01 00:56:10;;;;;;;0.00;0.00;;;;;;;;;;7377178;19;20880;-75
2023/08/01 00:58:41;;;;;;;0.00;0.00;;;;;;;;;;7378820;19;20148;-73
2023/08/01 01:01:10;;;;;;;0.00;0.00;;;;;;;;;;7378397;19;20643;-73
2023/08/01 01:03:39;;;;;;;0.00;0.00;;;;;;;;;;7378948;19;20190;-73
2023/08/01 01:06:12;;;;;;;0.00;0.00;;;;;;;;;;7381126;19;20145;-74
2023/08/01 01:08:41;;;;;;;0.00;0.00;;;;;;;;;;7377632;19;20156;-73
2023/08/01 01:11:10;;;;;;;0.00;0.00;;;;;;;;;;7380191;19;20156;-75
2023/08/01 01:13:42;;;;;;;0.00;0.00;;;;;;;;;;7378659;19;20153;-73
2023/08/01 01:16:11;;;;;;;0.00;0.00;;;;;;;;;;7380151;19;20144;-73
2023/08/01 01:18:40;;;;;;;0.00;0.00;;;;;;;;;;7378904;19;20180;-73
2023/08/01 01:21:11;;;;;;;0.00;0.00;;;;;;;;;;7379846;19;20153;-71
2023/08/01 01:23:41;;;;;;;0.00;0.00;;;;;;;;;;7381927;19;20160;-72
2023/08/01 01:26:10;;;;;;;0.00;0.00;;;;;;;;;;7386902;19;20133;-73
2023/08/01 01:28:40;;;;;;;0.00;0.00;;;;;;;;;;7384590;19;20153;-74
2023/08/01 01:31:09;;;;;;;0.00;0.00;;;;;;;;;;7384417;19;20177;-73
2023/08/01 01:33:38;;;;;;;0.00;0.00;;;;;;;;;;7384076;19;20140;-73
2023/08/01 01:36:07;;;;;;;0.00;0.00;;;;;;;;;;7385802;19;20152;-72
2023/08/01 01:38:40;;;;;;;0.00;0.00;;;;;;;;;;7383616;19;20152;-73
2023/08/01 01:41:09;;;;;;;0.00;0.00;;;;;;;;;;7384050;19;20163;-73
2023/08/01 01:43:38;;;;;;;0.00;0.00;;;;;;;;;;7382784;19;20644;-74
2023/08/01 01:46:07;;;;;;;0.00;0.00;;;;;;;;;;7387456;19;20166;-72
2023/08/01 01:48:35;;;;;;;0.00;0.00;;;;;;;;;;7385312;19;20129;-70
2023/08/01 01:51:04;;;;;;;0.00;0.00;;;;;;;;;;7384085;19;20212;-73
2023/08/01 01:53:33;;;;;;;0.00;0.00;;;;;;;;;;7384474;19;20238;-72
2023/08/01 01:56:06;;;;;;;0.00;0.00;;;;;;;;;;7385375;19;20166;-72
2023/08/01 01:58:35;;;;;;;0.00;0.00;;;;;;;;;;7383418;19;20149;-73
2023/08/01 02:01:06;;;;;;;0.00;0.00;;;;;;;;;;7382862;19;20217;-70
2023/08/01 02:03:35;;;;;;;0.00;0.00;;;;;;;;;;7386374;19;20133;-71
2023/08/01 02:06:05;;;;;;;0.00;0.00;;;;;;;;;;7385266;19;20176;-71
2023/08/01 02:08:34;;;;;;;0.00;0.00;;;;;;;;;;7383685;19;20157;-72
2023/08/01 02:11:06;;;;;;;0.00;0.00;;;;;;;;;;7384297;19;20233;-72
2023/08/01 02:13:36;;;;;;;0.00;0.00;;;;;;;;;;7385349;19;20132;-71
2023/08/01 02:16:05;;;;;;;0.00;0.00;;;;;;;;;;7384161;19;20631;-73
2023/08/01 02:18:33;;;;;;;0.00;0.00;;;;;;;;;;7384721;19;20157;-74
2023/08/01 02:21:02;;;;;;;0.00;0.00;;;;;;;;;;7382378;19;20185;-71
2023/08/01 02:23:33;;;;;;;0.00;0.00;;;;;;;;;;7382394;19;20156;-74
2023/08/01 02:26:02;;;;;;;0.00;0.00;;;;;;;;;;7385927;19;20137;-74
2023/08/01 02:28:34;;;;;;;0.00;0.00;;;;;;;;;;7383770;19;20141;-71
2023/08/01 02:31:03;;;;;;;0.00;0.00;;;;;;;;;;7382095;19;20204;-71
2023/08/01 02:33:32;;;;;;;0.00;0.00;;;;;;;;;;7383289;19;20141;-72
2023/08/01 02:36:01;;;;;;;0.00;0.00;;;;;;;;;;7383956;19;20181;-72
2023/08/01 02:38:30;;;;;;;0.00;0.00;;;;;;;;;;7382851;19;20156;-74
2023/08/01 02:40:58;;;;;;;0.00;0.00;;;;;;;;;;7382680;19;20161;-74
2023/08/01 02:43:27;;;;;;;0.00;0.00;;;;;;;;;;7385014;19;20148;-75
2023/08/01 02:46:01;;;;;;;0.00;0.00;;;;;;;;;;7383961;19;20156;-73
2023/08/01 02:48:30;;;;;;;0.00;0.00;;;;;;;;;;7384579;19;20216;-72
2023/08/01 02:50:59;;;;;;;0.00;0.00;;;;;;;;;;7383877;19;20149;-73
2023/08/01 02:53:28;;;;;;;0.00;0.00;;;;;;;;;;7384139;19;20215;-72
2023/08/01 02:55:57;;;;;;;0.00;0.00;;;;;;;;;;7383903;19;20173;-73
2023/08/01 02:58:26;;;;;;;0.00;0.00;;;;;;;;;;7383118;19;20160;-72
2023/08/01 03:00:56;;;;;;;0.00;0.00;;;;;;;;;;7381368;19;20188;-73
2023/08/01 03:03:28;;;;;;;0.00;0.00;;;;;;;;;;7384499;19;20155;-74
2023/08/01 03:05:57;;;;;;;0.00;0.00;;;;;;;;;;7382379;19;20157;-71
2023/08/01 03:08:26;;;;;;;0.00;0.00;;;;;;;;;;7384428;19;20224;-76
2023/08/01 03:10:55;;;;;;;0.00;0.00;;;;;;;;;;7382282;19;20152;-71
2023/08/01 03:13:24;;;;;;;0.00;0.00;;;;;;;;;;7384743;19;20165;-72
2023/08/01 03:15:53;;;;;;;0.00;0.00;;;;;;;;;;7381864;19;20786;-70
2023/08/01 03:18:22;;;;;;;0.00;0.00;;;;;;;;;;7382969;19;20192;-72
2023/08/01 03:20:53;;;;;;;0.00;0.00;;;;;;;;;;7380350;19;20184;-72
2023/08/01 03:23:22;;;;;;;0.00;0.00;;;;;;;;;;7381605;19;20153;-73
2023/08/01 03:25:51;;;;;;;0.00;0.00;;;;;;;;;;7381583;19;20172;-72
2023/08/01 03:28:20;;;;;;;0.00;0.00;;;;;;;;;;7383051;19;20141;-72
2023/08/01 03:30:50;;;;;;;0.00;0.00;;;;;;;;;;7379272;19;20176;-74
2023/08/01 03:33:19;;;;;;;0.00;0.00;;;;;;;;;;7384212;19;20168;-74
2023/08/01 03:35:48;;;;;;;0.00;0.00;;;;;;;;;;7380999;19;20153;-73
2023/08/01 03:38:20;;;;;;;0.00;0.00;;;;;;;;;;7382583;19;20157;-74
2023/08/01 03:40:49;;;;;;;0.00;0.00;;;;;;;;;;7381332;19;20157;-70
2023/08/01 03:43:23;;;;;;;0.00;0.00;;;;;;;;;;7384326;19;20141;-72
2023/08/01 03:45:52;;;;;;;0.00;0.00;;;;;;;;;;7379498;19;20220;-71
2023/08/01 03:48:21;;;;;;;0.00;0.00;;;;;;;;;;7384301;19;20210;-72
2023/08/01 03:50:49;;;;;;;0.00;0.00;;;;;;;;;;7381001;19;20521;-74
2023/08/01 03:53:21;;;;;;;0.00;0.00;;;;;;;;;;7384621;19;20225;-73
2023/08/01 03:55:51;;;;;;;0.00;0.00;;;;;;;;;;7380152;19;20184;-72
2023/08/01 03:58:20;;;;;;;0.00;0.00;;;;;;;;;;7382158;19;20159;-72
2023/08/01 04:00:49;;;;;;;0.00;0.00;;;;;;;;;;7379156;19;20208;-72
2023/08/01 04:03:18;;;;;;;0.00;0.00;;;;;;;;;;7382318;19;20137;-74
2023/08/01 04:05:46;;;;;;;0.00;0.00;;;;;;;;;;7381072;19;20156;-73
2023/08/01 04:08:15;;;;;;;0.00;0.00;;;;;;;;;;7381068;19;20153;-73
2023/08/01 04:10:47;;;;;;;0.00;0.00;;;;;;;;;;7377913;19;20180;-74
2023/08/01 04:13:16;;;;;;;0.00;0.00;;;;;;;;;;7381686;19;20129;-73
2023/08/01 04:15:45;;;;;;;0.00;0.00;;;;;;;;;;7382174;19;20137;-72
2023/08/01 04:18:14;;;;;;;0.00;0.00;;;;;;;;;;7383058;19;20227;-71
2023/08/01 04:20:43;;;;;;;0.00;0.00;;;;;;;;;;7380527;19;20236;-71
2023/08/01 04:23:12;;;;;;;0.00;0.00;;;;;;;;;;7380486;19;20185;-69
2023/08/01 04:25:44;;;;;;;0.00;0.00;;;;;;;;;;7380143;19;20253;-70
2023/08/01 04:28:15;;;;;;;0.00;0.00;;;;;;;;;;7380936;19;20237;-71
2023/08/01 04:30:44;;;;;;;0.00;0.00;;;;;;;;;;7377900;19;20177;-70
2023/08/01 04:33:13;;;;;;;0.00;0.00;;;;;;;;;;7379408;19;20160;-71
2023/08/01 04:35:42;;;;;;;0.00;0.00;;;;;;;;;;7379081;19;20171;-70
2023/08/01 04:38:11;;;;;;;0.00;0.00;;;;;;;;;;7379939;19;20187;-71
2023/08/01 04:40:40;;;;;;;0.00;0.00;;;;;;;;;;7377958;19;20184;-70
2023/08/01 04:43:09;;;;;;;0.00;0.00;;;;;;;;;;7379747;19;20272;-70
2023/08/01 04:45:41;;;;;;;0.00;0.00;;;;;;;;;;7379378;19;20156;-70
2023/08/01 04:48:10;;;;;;;0.00;0.00;;;;;;;;;;7380272;19;20153;-71
2023/08/01 04:50:38;;;;;;;0.00;0.00;;;;;;;;;;7372578;19;20200;-70
2023/08/01 04:53:08;;;;;;;0.00;0.00;;;;;;;;;;7370719;19;20206;-70
2023/08/01 04:55:37;;;;;;;0.00;0.00;;;;;;;;;;7374358;19;20140;-70
2023/08/01 04:58:05;;;;;;;0.00;0.00;;;;;;;;;;7386473;19;20144;-69
2023/08/01 05:00:34;;;;;;;0.00;0.00;;;;;;;;;;7384844;19;20145;-70
2023/08/01 05:03:06;;;;;;;0.00;0.00;;;;;;;;;;7387235;19;20140;-71
2023/08/01 05:05:35;;;;;;;0.00;0.00;;;;;;;;;;7386754;19;20173;-71
2023/08/01 05:08:04;;;;;;;0.00;0.00;;;;;;;;;;7386320;19;20168;-70
2023/08/01 05:10:33;;;;;;;0.00;0.00;;;;;;;;;;7383843;19;20151;-70
2023/08/01 05:13:02;;;;;;;0.00;0.00;;;;;;;;;;7383779;19;20164;-71
2023/08/01 05:15:31;;;;;;;0.00;0.00;;;;;;;;;;7384821;19;20177;-71
2023/08/01 05:18:00;;;;;;;0.00;0.00;;;;;;;;;;7385763;19;20177;-69
2023/08/01 05:20:33;;;;;;;0.00;0.00;;;;;;;;;;7384691;19;20157;-70
2023/08/01 05:23:02;;;;;;;0.00;0.00;;;;;;;;;;7384728;19;20145;-72
2023/08/01 05:25:32;;;;;;;0.00;0.00;;;;;;;;;;7384461;19;20156;-72
2023/08/01 05:28:00;;;;;;;0.00;0.00;;;;;;;;;;7381269;19;20160;-72
2023/08/01 05:30:29;;;;;;;0.00;0.00;;;;;;;;;;7382448;19;20145;-70
2023/08/01 05:32:58;;;;;;;0.00;0.00;;;;;;;;;;7388302;19;20168;-72
2023/08/01 05:35:27;;;;;;;0.00;0.00;;;;;;;;;;7392595;19;20148;-71
2023/08/01 05:37:59;;;;;;;0.00;0.00;;;;;;;;;;7390408;19;20133;-70
2023/08/01 05:40:28;;;;;;;0.00;0.00;;;;;;;;;;7385051;19;20220;-73
2023/08/01 05:42:57;;;;;;;0.00;0.00;;;;;;;;;;7385551;19;20156;-73
2023/08/01 05:45:26;;;;;;;0.00;0.00;;;;;;;;;;7387226;19;20145;-73
2023/08/01 05:47:55;;;;;;;0.00;0.00;;;;;;;;;;7384699;19;20157;-74
2023/08/01 05:50:24;;;;;;;0.00;0.00;;;;;;;;;;7382697;19;20152;-72
2023/08/01 05:52:53;;;;;;;0.00;0.00;;;;;;;;;;7384013;19;20160;-72
2023/08/01 05:55:25;;;;;;;0.00;0.00;;;;;;;;;;7384894;19;20231;-72
2023/08/01 05:57:54;;;;;;;0.00;0.00;;;;;;;;;;7386428;19;20133;-71
2023/08/01 06:00:23;;;;;;;0.00;0.00;;;;;;;;;;7385918;19;20137;-72
2023/08/01 06:02:52;;;;;;;0.00;0.00;;;;;;;;;;7383051;19;20153;-73
2023/08/01 06:05:21;;;;;;;0.00;0.00;;;;;;;;;;7384344;19;20184;-71
2023/08/01 06:07:50;;;;;;;0.00;0.00;;;;;;;;;;7385001;19;20555;-74
2023/08/01 06:10:18;;;;;;;0.00;0.00;;;;;;;;;;7383919;19;20137;-70
2023/08/01 06:12:50;;;;;;;0.00;0.00;;;;;;;;;;7386221;19;20140;-71
2023/08/01 06:15:19;;;;;;;0.00;0.00;;;;;;;;;;7384955;19;20156;-70
2023/08/01 06:17:48;;;;;;;0.00;0.00;;;;;;;;;;7384248;19;20149;-70
2023/08/01 06:20:17;;;;;;;0.00;0.00;;;;;;;;;;7383117;19;20157;-71
2023/08/01 06:22:46;;;;;;;0.00;0.00;;;;;;;;;;7383100;19;20177;-71
2023/08/01 06:25:15;;;;;;;0.00;0.00;;;;;;;;;;7383281;19;20152;-74
2023/08/01 06:27:44;;;;;;;0.00;0.00;;;;;;;;;;7385453;19;20133;-71
2023/08/01 06:30:16;;;;;;;0.00;0.00;;;;;;;;;;7380796;19;20152;-72
2023/08/01 06:32:45;;;;;;;0.00;0.00;;;;;;;;;;7382699;19;20537;-71
2023/08/01 06:35:14;;;;;;;0.00;0.00;;;;;;;;;;7383027;19;20160;-72
2023/08/01 06:37:43;;;;;;;0.00;0.00;;;;;;;;;;7383106;19;20212;-73
2023/08/01 06:40:13;;;;;;;0.00;0.00;;;;;;;;;;7382646;19;20163;-70
2023/08/01 06:42:42;;;;;;;0.00;0.00;;;;;;;;;;7380212;19;20213;-72
2023/08/01 06:45:12;;;;;;;0.00;0.00;;;;;;;;;;7382282;19;20156;-72
2023/08/01 06:47:43;;;;;;;0.00;0.00;;;;;;;;;;7383113;19;20165;-72
2023/08/01 06:50:13;;;;;;;0.00;0.00;;;;;;;;;;7381342;19;20156;-72
2023/08/01 06:52:42;;;;;;;0.00;0.00;;;;;;;;;;7380762;19;20210;-73
2023/08/01 06:55:12;;;;;;;0.00;0.00;;;;;;;;;;7383962;19;20148;-73
2023/08/01 06:57:41;;;;;;;0.00;0.00;;;;;;;;;;7382702;19;20181;-71
2023/08/01 07:00:11;;;;;;;0.00;0.00;;;;;;;;;;7382127;19;20164;-72
2023/08/01 07:02:40;;;;;;;0.00;0.00;;;;;;;;;;7380801;19;20631;-72
2023/08/01 07:05:12;;;;;;;0.00;0.00;;;;;;;;;;7383304;19;20140;-70
2023/08/01 07:07:41;;;;;;;0.00;0.00;;;;;;;;;;7382660;19;20137;-72
2023/08/01 07:10:11;;;;;;;0.00;0.00;;;;;;;;;;7379949;19;20165;-72
2023/08/01 07:12:40;;;;;;;0.00;0.00;;;;;;;;;;7381774;19;20570;-73
2023/08/01 07:15:10;;;;;;;0.00;0.00;;;;;;;;;;7383270;19;20165;-72
2023/08/01 07:17:39;;;;;;;0.00;0.00;;;;;;;;;;7381611;19;20164;-71
2023/08/01 07:20:08;;;;;;;0.00;0.00;;;;;;;;;;7377220;19;20145;-73
2023/08/01 07:22:40;;;;;;;0.00;0.00;;;;;;;;;;7379773;19;20209;-71
2023/08/01 07:25:11;;;;;;;0.00;0.00;;;;;;;;;;7380940;19;20157;-72
2023/08/01 07:27:40;;;;;;;0.00;0.00;;;;;;;;;;7383578;19;20144;-72
2023/08/01 07:30:10;;;;;;;0.00;0.00;;;;;;;;;;7380680;19;20167;-71
2023/08/01 07:32:39;;;;;;;0.00;0.00;;;;;;;;;;7378636;19;20192;-71
2023/08/01 07:35:09;;;;;;;0.00;0.00;;;;;;;;;;7382659;19;20137;-70
2023/08/01 07:37:41;;;;;;;0.00;0.00;;;;;;;;;;7381337;19;20141;-71
2023/08/01 07:40:11;;;;;;;0.00;0.00;;;;;;;;;;7382612;19;20139;-75
2023/08/01 07:42:40;;;;;;;0.00;0.00;;;;;;;;;;7379099;19;20176;-72
2023/08/01 07:45:09;;;;;;;0.00;0.00;;;;;;;;;;7382156;19;20148;-70
2023/08/01 07:47:38;;;;;;;0.00;0.00;;;;;;;;;;7381151;19;20165;-72
2023/08/01 07:50:08;;;;;;;0.00;0.00;;;;;;;;;;7381749;19;20136;-70
2023/08/01 07:52:37;;;;;;;0.00;0.00;;;;;;;;;;7379709;19;20181;-71
2023/08/01 07:55:10;;;;;;;0.00;0.00;;;;;;;;;;7383078;19;20537;-73
2023/08/01 07:57:39;;;;;;;0.00;0.00;;;;;;;;;;7379930;19;20163;-71
2023/08/01 08:00:09;;;;;;;0.00;0.00;;;;;;;;;;7381756;19;20204;-75
2023/08/01 08:02:45;;;;;;;0.00;0.00;;;;;;;;;;7380134;19;20157;-74
2023/08/01 08:05:14;;;;;;;0.00;0.00;;;;;;;;;;7379585;19;20160;-73
2023/08/01 08:07:43;;;;;;;0.00;0.00;;;;;;;;;;7381122;19;20141;-74
2023/08/01 08:10:14;;;;;;;0.00;0.00;;;;;;;;;;7381600;19;20133;-74
2023/08/01 08:12:43;;;;;;;0.00;0.00;;;;;;;;;;7380146;19;20152;-73
2023/08/01 08:15:13;;;;;;;0.00;0.00;;;;;;;;;;7381684;19;20148;-72
2023/08/01 08:17:42;;;;;;;0.00;0.00;;;;;;;;;;7380747;19;20157;-72
2023/08/01 08:20:11;;;;;;;0.00;0.00;;;;;;;;;;7381317;19;20141;-74
2023/08/01 08:22:40;;;;;;;0.00;0.00;;;;;;;;;;7380147;19;20161;-74
2023/08/01 08:25:09;;;;;;;0.00;0.00;;;;;;;;;;7380686;19;20136;-70
2023/08/01 08:27:41;;;;;;;0.00;0.00;;;;;;;;;;7380194;19;20156;-74
2023/08/01 08:30:10;;;;;;;0.00;0.00;;;;;;;;;;7377612;19;20144;-73
2023/08/01 08:32:40;;;;;;;0.00;0.00;;;;;;;;;;7375069;19;20179;-74
2023/08/01 08:35:09;;;;;;;0.00;0.00;;;;;;;;;;7379536;19;20153;-72
2023/08/01 08:37:38;;;;;;;0.00;0.00;;;;;;;;;;7381747;19;20157;-72
2023/08/01 08:40:08;;;;;;;0.00;0.00;;;;;;;;;;7378555;19;20136;-71
2023/08/01 08:42:37;;;;;;;0.00;0.00;;;;;;;;;;7376930;19;20188;-75
2023/08/01 08:45:09;;;;;;;0.00;0.00;;;;;;;;;;7378977;19;20626;-74
2023/08/01 08:47:40;;;;;;;0.00;0.00;;;;;;;;;;7378886;19;20183;-73
2023/08/01 08:50:09;;;;;;;0.00;0.00;;;;;;;;;;7379958;19;20149;-73
2023/08/01 08:52:38;;;;;;;0.00;0.00;;;;;;;;;;7377130;19;20176;-72
2023/08/01 08:55:07;;;;;;;0.00;0.00;;;;;;;;;;7378140;19;20159;-74
2023/08/01 08:57:37;;;;;;;0.00;0.00;;;;;;;;;;7379590;19;20161;-71
2023/08/01 09:00:09;;;;;;;0.00;0.00;;;;;;;;;;7378875;19;20153;-71
2023/08/01 09:02:38;;;;;;;0.00;0.00;;;;;;;;;;7376164;19;20223;-73
2023/08/01 09:05:08;;;;;;;0.00;0.00;;;;;;;;;;7378779;19;20167;-76
2023/08/01 09:07:37;;;;;;;0.00;0.00;;;;;;;;;;7378751;19;20140;-73
2023/08/01 09:10:06;;;;;;;0.00;0.00;;;;;;;;;;7378517;19;20163;-73
2023/08/01 09:12:38;;;;;;;0.00;0.00;;;;;;;;;;7378219;19;20536;-72
2023/08/01 09:15:13;;;;;;;0.00;0.00;;;;;;;;;;7377650;19;20173;-73
2023/08/01 09:17:50;;;;;;;0.00;0.00;;;;;;;;;;7377888;19;20149;-76
2023/08/01 09:20:19;;;;;;;0.00;0.00;;;;;;;;;;7378721;19;20140;-70
2023/08/01 09:22:49;;;;;;;0.00;0.00;;;;;;;;;;7378415;19;20141;-73
2023/08/01 09:25:18;;;;;;;0.00;0.00;;;;;;;;;;7378680;19;20137;-75
2023/08/01 09:27:47;;;;;;;0.00;0.00;;;;;;;;;;7377104;19;20173;-76
2023/08/01 09:30:19;;;;;;;0.00;0.00;;;;;;;;;;7375996;19;20153;-71
2023/08/01 09:32:54;;;;;;;0.00;0.00;;;;;;;;;;7377235;19;20600;-73
2023/08/01 09:35:23;;;;;;;0.00;0.00;;;;;;;;;;7377983;19;20165;-73
2023/08/01 09:37:52;;;;;;;0.00;0.00;;;;;;;;;;7378092;19;20157;-74
2023/08/01 09:40:22;;;;;;;0.00;0.00;;;;;;;;;;7377234;19;20148;-72
2023/08/01 09:42:51;;;;;;;0.00;0.00;;;;;;;;;;7379080;19;20137;-74
2023/08/01 09:45:23;;;;;;;0.00;0.00;;;;;;;;;;7384191;19;20157;-75
2023/08/01 09:47:52;;;;;;;0.00;0.00;;;;;;;;;;7384539;19;20160;-74
2023/08/01 09:50:23;;;;;;;0.00;0.00;;;;;;;;;;7383155;19;20157;-73
2023/08/01 09:52:52;;;;;;;0.00;0.00;;;;;;;;;;7383831;19;20137;-72
2023/08/01 09:55:22;;;;;;;0.00;0.00;;;;;;;;;;7383534;19;20169;-74
2023/08/01 09:57:52;;;;;;;0.00;0.00;;;;;;;;;;7386750;19;20152;-71
2023/08/01 10:00:23;;;;;;;0.00;0.00;;;;;;;;;;7383394;19;20157;-72
2023/08/01 10:02:53;;;;;;;0.00;0.00;;;;;;;;;;7383882;19;20155;-73
2023/08/01 10:05:23;;;;;;;0.00;0.00;;;;;;;;;;7385379;19;20137;-74
2023/08/01 10:07:54;;;;;;;0.00;0.00;;;;;;;;;;7385445;19;20144;-74
2023/08/01 10:10:24;;;;;;;0.00;0.00;;;;;;;;;;7384818;19;20157;-72
2023/08/01 10:12:53;;;;;;;0.00;0.00;;;;;;;;;;7382686;19;20162;-72
2023/08/01 10:15:26;;;;;;;0.00;0.00;;;;;;;;;;7384523;19;20153;-72
2023/08/01 10:17:55;;;;;;;0.00;0.00;;;;;;;;;;7383931;19;20191;-72
2023/08/01 10:20:25;;;;;;;0.00;0.00;;;;;;;;;;7385015;19;20129;-72
2023/08/01 10:22:55;;;;;;;0.00;0.00;;;;;;;;;;7382936;19;20174;-74
2023/08/01 10:25:26;;;;;;;0.00;0.00;;;;;;;;;;7383779;19;20153;-71
2023/08/01 10:28:01;;;;;;;0.00;0.00;;;;;;;;;;7383331;19;20181;-71
2023/08/01 10:30:33;;;;;;;0.00;0.00;;;;;;;;;;7383976;19;20132;-71
2023/08/01 10:33:03;;;;;;;0.00;0.00;;;;;;;;;;7380863;19;20168;-73
2023/08/01 10:35:35;;;;;;;0.00;0.00;;;;;;;;;;7385035;19;20162;-72
2023/08/01 10:38:08;;;;;;;0.00;0.00;;;;;;;;;;7382854;19;20149;-70
2023/08/01 10:40:37;;;;;;;0.00;0.00;;;;;;;;;;7383252;19;20157;-73
2023/08/01 10:43:06;;;;;;;0.00;0.00;;;;;;;;;;7384014;19;20158;-74
2023/08/01 10:45:38;;;;;;;0.00;0.00;;;;;;;;;;7386074;19;20133;-72
2023/08/01 10:48:11;;;;;;;0.00;0.00;;;;;;;;;;7388730;19;20153;-71
2023/08/01 10:50:40;;;;;;;0.00;0.00;;;;;;;;;;7384653;19;20153;-70
2023/08/01 10:53:10;;;;;;;0.00;0.00;;;;;;;;;;7380847;19;20137;-71
2023/08/01 10:55:47;;;;;;;0.00;0.00;;;;;;;;;;7377834;19;20161;-73
2023/08/01 10:58:16;;;;;;;0.00;0.00;;;;;;;;;;7383920;19;20609;-74
2023/08/01 11:00:47;;;;;;;0.00;0.00;;;;;;;;;;7382860;19;20152;-76
2023/08/01 11:03:19;;;;;;;0.00;0.00;;;;;;;;;;7384719;19;20137;-76
2023/08/01 11:06:00;;;;;;;0.00;0.00;;;;;;;;;;7384402;19;20157;-75
2023/08/01 11:08:37;;;;;;;0.00;0.00;;;;;;;;;;7384985;19;20136;-72
2023/08/01 11:11:07;;;;;;;0.00;0.00;;;;;;;;;;7380925;19;20188;-75
2023/08/01 11:13:37;;;;;;;0.00;0.00;;;;;;;;;;7384404;19;20157;-74
2023/08/01 11:16:09;;;;;;;0.00;0.00;;;;;;;;;;7384190;19;20137;-72
2023/08/01 11:18:44;;;;;;;0.00;0.00;;;;;;;;;;7383934;19;20165;-74
2023/08/01 11:21:14;;;;;;;0.00;0.00;;;;;;;;;;7381106;19;20283;-76
2023/08/01 11:23:43;;;;;;;0.00;0.00;;;;;;;;;;7385088;19;20141;-75
2023/08/01 11:26:12;;;;;;;0.00;0.00;;;;;;;;;;7384438;19;20137;-76
2023/08/01 11:28:41;;;;;;;0.00;0.00;;;;;;;;;;7382115;19;20157;-76
2023/08/01 11:31:18;;;;;;;0.00;0.00;;;;;;;;;;7383368;19;20144;-77
2023/08/01 11:33:58;;;;;;;0.00;0.00;;;;;;;;;;7383283;19;20152;-73
2023/08/01 11:36:28;;;;;;;0.00;0.00;;;;;;;;;;7381628;19;20507;-75
2023/08/01 11:38:59;;;;;;;0.00;0.00;;;;;;;;;;7381704;19;20148;-73
2023/08/01 11:41:28;;;;;;;0.00;0.00;;;;;;;;;;7381443;19;20187;-73
2023/08/01 11:43:57;;;;;;;0.00;0.00;;;;;;;;;;7381891;19;20158;-75
2023/08/01 11:46:33;;;;;;;0.00;0.00;;;;;;;;;;7381572;19;20191;-73
2023/08/01 11:49:03;;;;;;;0.00;0.00;;;;;;;;;;7382408;19;20148;-75
2023/08/01 11:51:32;;;;;;;0.00;0.00;;;;;;;;;;7381050;19;20661;-74
2023/08/01 11:54:02;;;;;;;0.00;0.00;;;;;;;;;;7382081;19;20555;-75
2023/08/01 11:56:31;;;;;;;0.00;0.00;;;;;;;;;;7379558;19;20157;-75
2023/08/01 11:59:00;;;;;;;0.00;0.00;;;;;;;;;;7378620;19;20182;-75
2023/08/01 12:01:31;;;;;;;0.00;0.00;;;;;;;;;;7380724;19;20157;-71
2023/08/01 12:04:00;;;;;;;0.00;0.00;;;;;;;;;;7381275;19;20137;-72
2023/08/01 12:06:34;;;;;;;0.00;0.00;;;;;;;;;;7378803;19;20185;-75
2023/08/01 12:09:09;;;;;;;0.00;0.00;;;;;;;;;;7378838;19;20180;-72
2023/08/01 12:11:38;;;;;;;0.00;0.00;;;;;;;;;;7377030;19;20213;-71
2023/08/01 12:14:09;;;;;;;0.00;0.00;;;;;;;;;;7381655;19;20129;-71
2023/08/01 12:16:41;;;;;;;0.00;0.00;;;;;;;;;;7381401;19;20136;-71
2023/08/01 12:19:10;;;;;;;0.00;0.00;;;;;;;;;;7379480;19;20176;-71
2023/08/01 12:21:40;;;;;;;0.00;0.00;;;;;;;;;;7376755;19;20218;-71
2023/08/01 12:24:09;;;;;;;0.00;0.00;;;;;;;;;;7378902;19;20159;-72
2023/08/01 12:26:37;;;;;;;0.00;0.00;;;;;;;;;;7380114;19;20137;-71
2023/08/01 12:29:07;;;;;;;0.00;0.00;;;;;;;;;;7378634;19;20160;-73
2023/08/01 12:31:36;;;;;;;0.00;0.00;;;;;;;;;;7376262;19;20148;-74
2023/08/01 12:34:08;;;;;;;0.00;0.00;;;;;;;;;;7378784;19;20129;-74
2023/08/01 12:36:36;;;;;;;0.00;0.00;;;;;;;;;;7377888;19;20136;-72
2023/08/01 12:39:10;;;;;;;0.00;0.00;;;;;;;;;;7369876;19;20152;-74
2023/08/01 12:41:39;;;;;;;0.00;0.00;;;;;;;;;;7369172;19;20185;-73
2023/08/01 12:44:08;;;;;;;0.00;0.00;;;;;;;;;;7368162;19;20172;-73
2023/08/01 12:46:37;;;;;;;0.00;0.00;;;;;;;;;;7374694;19;20169;-71
2023/08/01 12:49:09;;;;;;;0.00;0.00;;;;;;;;;;7375771;19;20208;-75
2023/08/01 12:51:38;;;;;;;0.00;0.00;;;;;;;;;;7375391;19;20160;-75
2023/08/01 12:54:07;;;;;;;0.00;0.00;;;;;;;;;;7377276;19;20160;-76
2023/08/01 12:56:36;;;;;;;0.00;0.00;;;;;;;;;;7378372;19;20209;-77
2023/08/01 12:59:05;;;;;;;0.00;0.00;;;;;;;;;;7378110;19;20158;-76
2023/08/01 13:01:33;;;;;;;0.00;0.00;;;;;;;;;;7375873;19;20152;-73
2023/08/01 13:04:02;;;;;;;0.00;0.00;;;;;;;;;;7378382;19;20141;-72
2023/08/01 13:06:34;;;;;;;0.00;0.00;;;;;;;;;;7379347;19;20145;-72
2023/08/01 13:09:03;;;;;;;0.00;0.00;;;;;;;;;;7378170;19;20141;-71
2023/08/01 13:11:32;;;;;;;0.00;0.00;;;;;;;;;;7375777;19;20205;-69
2023/08/01 13:14:01;;;;;;;0.00;0.00;;;;;;;;;;7376105;19;20144;-72
2023/08/01 13:16:29;;;;;;;0.00;0.00;;;;;;;;;;7378508;19;20157;-71
2023/08/01 13:18:58;;;;;;;0.00;0.00;;;;;;;;;;7385405;19;20144;-72
2023/08/01 13:21:28;;;;;;;0.00;0.00;;;;;;;;;;7382306;19;20184;-72
2023/08/01 13:23:59;;;;;;;0.00;0.00;;;;;;;;;;7385896;19;20172;-70
2023/08/01 13:26:28;;;;;;;0.00;0.00;;;;;;;;;;7387775;19;20139;-70
2023/08/01 13:28:57;;;;;;;0.00;0.00;;;;;;;;;;7386036;19;20179;-70
2023/08/01 13:31:26;;;;;;;0.00;0.00;;;;;;;;;;7386575;19;20182;-71
2023/08/01 13:33:55;;;;;;;0.00;0.00;;;;;;;;;;7384134;19;20495;-71
2023/08/01 13:36:24;;;;;;;0.00;0.00;;;;;;;;;;7389320;19;20168;-73
2023/08/01 13:38:53;;;;;;;0.00;0.00;;;;;;;;;;7386089;19;20137;-74
2023/08/01 13:41:24;;;;;;;0.00;0.00;;;;;;;;;;7384141;19;20184;-70
2023/08/01 13:43:53;;;;;;;0.00;0.00;;;;;;;;;;7385448;19;20636;-72
2023/08/01 13:46:22;;;;;;;0.00;0.00;;;;;;;;;;7387550;19;20133;-71
2023/08/01 13:48:51;;;;;;;0.00;0.00;;;;;;;;;;7385688;19;20137;-68
2023/08/01 13:51:20;;;;;;;0.00;0.00;;;;;;;;;;7385747;19;20157;-72
2023/08/01 13:53:49;;;;;;;0.00;0.00;;;;;;;;;;7382120;19;20211;-72
2023/08/01 13:56:18;;;;;;;0.00;0.00;;;;;;;;;;7386377;19;20136;-70
2023/08/01 13:58:49;;;;;;;0.00;0.00;;;;;;;;;;7386564;19;20137;-73
2023/08/01 14:01:18;;;;;;;0.00;0.00;;;;;;;;;;7384214;19;20157;-71
2023/08/01 14:03:47;;;;;;;0.00;0.00;;;;;;;;;;7383864;19;20163;-70
2023/08/01 14:06:17;;;;;;;0.00;0.00;;;;;;;;;;7385028;19;20157;-71
2023/08/01 14:08:46;;;;;;;0.00;0.00;;;;;;;;;;7384611;19;20157;-72
2023/08/01 14:11:15;;;;;;;0.00;0.00;;;;;;;;;;7383168;19;20786;-70
2023/08/01 14:13:43;;;;;;;0.00;0.00;;;;;;;;;;7382935;19;20141;-70
2023/08/01 14:16:16;;;;;;;0.00;0.00;;;;;;;;;;7384038;19;20149;-72
2023/08/01 14:18:45;;;;;;;0.00;0.00;;;;;;;;;;7383549;19;20236;-72
2023/08/01 14:21:14;;;;;;;0.00;0.00;;;;;;;;;;7382579;19;20156;-73
2023/08/01 14:23:43;;;;;;;0.00;0.00;;;;;;;;;;7384845;19;20161;-71
2023/08/01 14:26:12;;;;;;;0.00;0.00;;;;;;;;;;7385197;19;20157;-71
2023/08/01 14:28:41;;;;;;;0.00;0.00;;;;;;;;;;7384868;19;20268;-70
2023/08/01 14:31:10;;;;;;;0.00;0.00;;;;;;;;;;7382016;19;20180;-69
2023/08/01 14:33:42;;;;;;;0.00;0.00;;;;;;;;;;7384702;19;20133;-71
2023/08/01 14:36:12;;;;;;;0.00;0.00;;;;;;;;;;7385384;19;20145;-70
2023/08/01 14:38:41;;;;;;;0.00;0.00;;;;;;;;;;7385498;19;20139;-69
2023/08/01 14:41:10;;;;;;;0.00;0.00;;;;;;;;;;7382248;19;20188;-70
2023/08/01 14:43:39;;;;;;;0.00;0.00;;;;;;;;;;7385248;19;20153;-69
2023/08/01 14:46:08;;;;;;;0.00;0.00;;;;;;;;;;7382859;19;20153;-70
2023/08/01 14:48:37;;;;;;;0.00;0.00;;;;;;;;;;7382990;19;20153;-72
2023/08/01 14:51:10;;;;;;;0.00;0.00;;;;;;;;;;7382359;19;20149;-72
2023/08/01 14:53:39;;;;;;;0.00;0.00;;;;;;;;;;7383345;19;20172;-70
2023/08/01 14:56:08;;;;;;;0.00;0.00;;;;;;;;;;7384521;19;20133;-69
2023/08/01 14:58:39;;;;;;;0.00;0.00;;;;;;;;;;7383324;19;20149;-73